Wendell Depot, MA (01380)

4:18 AM EST on November 29, 2014 (GMT -0500)
NQRA-Walnut Hill Rd. | Change Station
CLOSE
Current Station
Personal Weather Station
Location: Orange, MA
Elevation: 768 ft
Nearby Weather Stations

Elev 768 ft 42.58 °N, 72.32 °W | Updated 7 seconds ago

Clear
Clear
12.4 °F
Feels Like 12 °F
N
0.0
Wind Variable Wind from North
Gusts 0.0 mph

Today
High -- | Low -- °F
--% Chance of Precip.
Yesterday
High -- | Low -- °F
Precip. -- in
6:57 AM 4:18 PM
Waxing Crescent, 49% visible
Pressure 30.25 in
Visibility 1.2 miles
Clouds Few 200 ft
Windchill 12 °F
Dew Point 7 °F
Humidity 78%
Rainfall 0.00 in
Snow Depth Not available.
UV 0.0 out of 12
Pollen .10 out of 12
Air Quality Not available.
Flu Activity Not available.
SPECI KORE 290911Z AUTO 00000KT 1 1/4SM BR FEW002 M12/M14 A3025 RMK AO2 VIS 1/2V4 T11221139

More Conditions Fewer Conditions

Pressure 30.25 in
Visibility 1.2 miles
Clouds Few 200 ft
Windchill 12 °F
Dew Point 7 °F
Humidity 78%
Rainfall 0.00 in
Snow Depth Not available.
UV 0.0 out of 12
Pollen .10 out of 12
Air Quality Not available.
Flu Activity Not available.
SPECI KORE 290911Z AUTO 00000KT 1 1/4SM BR FEW002 M12/M14 A3025 RMK AO2 VIS 1/2V4 T11221139

More Conditions Fewer Conditions

10-Day Weather Forecast

Almanac

Astronomy

Nov. 29, 2014 Rise Set
Actual Time
Civil Twilight
Nautical Twilight
Astronomical Twilight
Moon
Length of Visible Light
Length of Day
Tomorrow will be .
, % of the Moon is Illuminated

Today's Extremes

State Highs State Lows

Community

WunderPhotos

Upload Photos

1,774,442 photos uploaded!

WunderBlogs® & News

Nearby

Air Quality

  Air Quality AQ Index Pollutant
Not available.

Snow Depth

Station Depth Elevation

Earthquake Activity

City Distance Mag. Time & Date
Minimum magnitude displayed is 2.5.

Coastal Water Temperatures

Place Temperature

Nearby Weather Stations